SoundGuardian — WDI8675 — position and weather

sailwx.info

Track history (hours):
 
Tides and Currents Weather Stations Pressure Air Temp Water Temp Dewpoint Dewpoint Depression Visibility Wind Speed Wind Dir Waves Ship Positions

Oceanographic research ship SoundGuardian (United States)

Owner: King County Environmental Laboratory, Seattle, WA. More information available from US FCC via Universal Licensing System and Coast Guard Vessel Documentation Center.

Last reported at 2020-Jul-07 22:00 UTC. Time now 2020-Jul-14 13:40 UTC.
Position N 47°40' W 122°24'.

Length 13 m; draft 1 m.

Type: Other ship. MMSI: 367741020.

Date/timePositionNaut miles runAvg speedWind from/ knotsBaromVisibWave heightAir tempDewpointWater temp
2020-Jul-07 22:00N 47°40' W 122°24'1812.3
2020-Jul-07 20:30N 47°22' W 122°23'11 5.3
2020-Jul-07 18:30N 47°32' W 122°26'2 0.9
2020-Jul-07 16:00N 47°34' W 122°25'2 2.1
2020-Jul-07 15:00N 47°36' W 122°26'4 4.0
2020-Jul-07 14:00N 47°39' W 122°22'2 0.1
2020-Jul-06 19:01N 47°37' W 122°24'2 4.6
2020-Jul-06 18:31N 47°36' W 122°21'6 6.5
2020-Jul-06 17:31N 47°42' W 122°26'3 6.3
2020-Jul-06 17:01N 47°45' W 122°26'  
Track history (hours):
 
Tides and Currents Weather Stations Pressure Air Temp Water Temp Dewpoint Dewpoint Depression Visibility Wind Speed Wind Dir Waves Ship Positions

Oceanographic research ship SoundGuardian (United States)

Owner: King County Environmental Laboratory, Seattle, WA. More information available from US FCC via Universal Licensing System and Coast Guard Vessel Documentation Center.

Last reported at 2020-Jul-07 22:00 UTC. Time now 2020-Jul-14 13:40 UTC.
Position N 47°40' W 122°24'.

Length 13 m; draft 1 m.

Type: Other ship. MMSI: 367741020.

Date/timePositionNaut miles runAvg speedWind from/ knotsBaromVisibWave heightAir tempDewpointWater temp
2020-Jul-07 22:00N 47°40' W 122°24'1812.3
2020-Jul-07 20:30N 47°22' W 122°23'11 5.3
2020-Jul-07 18:30N 47°32' W 122°26'2 0.9
2020-Jul-07 16:00N 47°34' W 122°25'2 2.1
2020-Jul-07 15:00N 47°36' W 122°26'4 4.0
2020-Jul-07 14:00N 47°39' W 122°22'2 0.1
2020-Jul-06 19:01N 47°37' W 122°24'2 4.6
2020-Jul-06 18:31N 47°36' W 122°21'6 6.5
2020-Jul-06 17:31N 47°42' W 122°26'3 6.3
2020-Jul-06 17:01N 47°45' W 122°26'  

Dump ship's entire track history